Map

Track Data

SID SEASON NUMBER BASIN SUBBASIN NAME ISO_TIME NATURE LAT LON WMO_WIND WMO_PRES WMO_AGENCY TRACK_TYPE DIST2LAND LANDFALL IFLAG USA_AGENCY USA_ATCF_ID USA_LAT USA_LON USA_RECORD USA_STATUS USA_WIND USA_PRES USA_SSHS USA_R34_NE USA_R34_SE USA_R34_SW USA_R34_NW USA_R50_NE USA_R50_SE USA_R50_SW USA_R50_NW USA_R64_NE USA_R64_SE USA_R64_SW USA_R64_NW USA_POCI USA_ROCI USA_RMW USA_EYE TOKYO_LAT TOKYO_LON TOKYO_GRADE TOKYO_WIND TOKYO_PRES TOKYO_R50_DIR TOKYO_R50_LONG TOKYO_R50_SHORT TOKYO_R30_DIR TOKYO_R30_LONG TOKYO_R30_SHORT TOKYO_LAND CMA_LAT CMA_LON CMA_CAT CMA_WIND CMA_PRES HKO_LAT HKO_LON HKO_CAT HKO_WIND HKO_PRES NEWDELHI_LAT NEWDELHI_LON NEWDELHI_GRADE NEWDELHI_WIND NEWDELHI_PRES NEWDELHI_CI NEWDELHI_DP NEWDELHI_POCI REUNION_LAT REUNION_LON REUNION_TYPE REUNION_WIND REUNION_PRES REUNION_TNUM REUNION_CI REUNION_RMW REUNION_R34_NE REUNION_R34_SE REUNION_R34_SW REUNION_R34_NW REUNION_R50_NE REUNION_R50_SE REUNION_R50_SW REUNION_R50_NW REUNION_R64_NE REUNION_R64_SE REUNION_R64_SW REUNION_R64_NW BOM_LAT BOM_LON BOM_TYPE BOM_WIND BOM_PRES BOM_TNUM BOM_CI BOM_RMW BOM_R34_NE BOM_R34_SE BOM_R34_SW BOM_R34_NW BOM_R50_NE BOM_R50_SE BOM_R50_SW BOM_R50_NW BOM_R64_NE BOM_R64_SE BOM_R64_SW BOM_R64_NW BOM_ROCI BOM_POCI BOM_EYE BOM_POS_METHOD BOM_PRES_METHOD NADI_LAT NADI_LON NADI_CAT NADI_WIND NADI_PRES WELLINGTON_LAT WELLINGTON_LON WELLINGTON_WIND WELLINGTON_PRES DS824_LAT DS824_LON DS824_STAGE DS824_WIND DS824_PRES TD9636_LAT TD9636_LON TD9636_STAGE TD9636_WIND TD9636_PRES TD9635_LAT TD9635_LON TD9635_WIND TD9635_PRES TD9635_ROCI NEUMANN_LAT NEUMANN_LON NEUMANN_CLASS NEUMANN_WIND NEUMANN_PRES MLC_LAT MLC_LON MLC_CLASS MLC_WIND MLC_PRES USA_GUST BOM_GUST BOM_GUST_PER REUNION_GUST REUNION_GUST_PER USA_SEAHGT USA_SEARAD_NE USA_SEARAD_SE USA_SEARAD_SW USA_SEARAD_NW STORM_SPEED STORM_DIR
1997011N04176 1997 4 WP MM HANNAH 1997-01-11 00:00:00 NR 4.00000 176.000 main 2182 2157 O_____________ jtwc_wp WP011997 4.00000 176.000 15 -1 6 270
1997011N04176 1997 4 WP MM HANNAH 1997-01-11 03:00:00 NR 4.00002 175.708 main 2157 2132 P_____________ WP011997 4.00002 175.708 15 -1 6 270
1997011N04176 1997 4 WP MM HANNAH 1997-01-11 06:00:00 NR 4.00000 175.400 main 2132 2107 O_____________ jtwc_wp WP011997 4.00000 175.400 15 -1 6 270
1997011N04176 1997 4 WP MM HANNAH 1997-01-11 09:00:00 NR 3.99998 175.065 main 2107 2075 P_____________ WP011997 3.99998 175.065 15 -1 7 270
1997011N04176 1997 4 WP MM HANNAH 1997-01-11 12:00:00 NR 4.00000 174.700 main 2075 2042 O_____________ jtwc_wp WP011997 4.00000 174.700 15 -1 8 270
1997011N04176 1997 4 WP MM HANNAH 1997-01-11 15:00:00 NR 4.00000 174.300 main 2042 2010 P_____________ WP011997 4.00000 174.300 15 -1 8 270
1997011N04176 1997 4 WP MM HANNAH 1997-01-11 18:00:00 NR 4.00000 173.900 main 2010 1987 O_____________ jtwc_wp WP011997 4.00000 173.900 15 -1 7 270
1997011N04176 1997 4 WP MM HANNAH 1997-01-11 21:00:00 NR 3.99994 173.565 main 1987 1955 P_____________ WP011997 3.99994 173.565 15 -1 7 270
1997011N04176 1997 4 WP MM HANNAH 1997-01-12 00:00:00 NR 4.00000 173.200 main 1955 1924 O_____________ jtwc_wp WP011997 4.00000 173.200 15 -1 8 270
1997011N04176 1997 4 WP MM HANNAH 1997-01-12 03:00:00 NR 3.99998 172.737 main 1917 1879 P_____________ WP011997 3.99998 172.737 15 -1 10 270
1997011N04176 1997 4 WP MM HANNAH 1997-01-12 06:00:00 NR 4.00000 172.200 main 1879 1842 O_____________ jtwc_wp WP011997 4.00000 172.200 15 -1 11 270
1997011N04176 1997 4 WP MM HANNAH 1997-01-12 09:00:00 NR 4.00743 171.637 main 1835 1792 P_____________ WP011997 4.00743 171.637 15 -1 12 270
1997011N04176 1997 4 WP MM HANNAH 1997-01-12 12:00:00 NR 4.00000 171.000 main 1792 1744 O_____________ jtwc_wp WP011997 4.00000 171.000 15 -1 14 268
1997011N04176 1997 4 WP MM HANNAH 1997-01-12 15:00:00 NR 3.94995 170.287 main 1735 1682 P_____________ WP011997 3.94995 170.287 15 -1 15 266
1997011N04176 1997 4 WP MM HANNAH 1997-01-12 18:00:00 NR 3.90000 169.500 main 1682 1633 O_____________ jtwc_wp WP011997 3.90000 169.500 15 -1 16 268
1997011N04176 1997 4 WP MM HANNAH 1997-01-12 21:00:00 NR 3.88502 168.643 main 1627 1582 P_____________ WP011997 3.88502 168.643 15 -1 17 270
1997011N04176 1997 4 WP MM HANNAH 1997-01-13 00:00:00 NR 3.90000 167.800 main 1582 1545 O_____________ jtwc_wp WP011997 3.90000 167.800 15 -1 15 272
1997011N04176 1997 4 WP MM HANNAH 1997-01-13 03:00:00 NR 3.93484 167.092 main 1545 1522 P_____________ WP011997 3.93484 167.092 15 -1 14 274
1997011N04176 1997 4 WP MM HANNAH 1997-01-13 06:00:00 NR 4.00000 166.400 main 1522 1502 O_____________ jtwc_wp WP011997 4.00000 166.400 15 -1 15 276
1997011N04176 1997 4 WP MM HANNAH 1997-01-13 09:00:00 NR 4.09246 165.615 main 1498 1480 P_____________ WP011997 4.09246 165.615 15 -1 16 277
1997011N04176 1997 4 WP MM HANNAH 1997-01-13 12:00:00 NR 4.20000 164.800 main 1480 1462 O_____________ jtwc_wp WP011997 4.20000 164.800 15 -1 16 277
1997011N04176 1997 4 WP MM HANNAH 1997-01-13 15:00:00 NR 4.29984 164.022 main 1457 1434 P_____________ WP011997 4.29984 164.022 15 -1 16 277
1997011N04176 1997 4 WP MM HANNAH 1997-01-13 18:00:00 NR 4.40000 163.200 main 1434 1386 O_____________ jtwc_wp WP011997 4.40000 163.200 15 -1 18 276
1997011N04176 1997 4 WP MM HANNAH 1997-01-13 21:00:00 NR 4.50004 162.250 main 1386 1334 P_____________ WP011997 4.50004 162.250 15 -1 19 276
1997011N04176 1997 4 WP MM HANNAH 1997-01-14 00:00:00 NR 4.60000 161.300 main 1334 1289 O_____________ jtwc_wp WP011997 4.60000 161.300 15 -1 18 276
1997011N04176 1997 4 WP MM HANNAH 1997-01-14 03:00:00 NR 4.69985 160.470 main 1289 1240 P_____________ WP011997 4.69985 160.470 15 -1 16 277
1997011N04176 1997 4 WP MM HANNAH 1997-01-14 06:00:00 NR 4.80000 159.700 main 1240 1203 O_____________ jtwc_wp WP011997 4.80000 159.700 15 -1 15 278
1997011N04176 1997 4 WP MM HANNAH 1997-01-14 09:00:00 NR 4.91484 158.958 main 1203 1157 P_____________ WP011997 4.91484 158.958 15 -1 15 278
1997011N04176 1997 4 WP MM HANNAH 1997-01-14 12:00:00 NR 5.00000 158.200 main 1157 1107 O_____________ jtwc_wp WP011997 5.00000 158.200 15 -1 16 274
1997011N04176 1997 4 WP MM HANNAH 1997-01-14 15:00:00 NR 5.01500 157.350 main 1101 1054 P_____________ WP011997 5.01500 157.350 15 -1 17 270
1997011N04176 1997 4 WP MM HANNAH 1997-01-14 18:00:00 NR 5.00000 156.500 main 1054 1016 O_____________ jtwc_wp WP011997 5.00000 156.500 15 -1 16 269
1997011N04176 1997 4 WP MM HANNAH 1997-01-14 21:00:00 NR 4.99986 155.735 main 1010 975 P_____________ WP011997 4.99986 155.735 15 -1 15 270
1997011N04176 1997 4 WP MM HANNAH 1997-01-15 00:00:00 NR 5.00000 155.000 main 975 942 O_____________ jtwc_wp WP011997 5.00000 155.000 15 -1 15 270
1997011N04176 1997 4 WP MM HANNAH 1997-01-15 03:00:00 NR 4.99239 154.257 main 942 910 P_____________ WP011997 4.99239 154.257 15 -1 15 270
1997011N04176 1997 4 WP MM HANNAH 1997-01-15 06:00:00 NR 5.00000 153.500 main 910 885 O_____________ jtwc_wp WP011997 5.00000 153.500 15 -1 16 272
1997011N04176 1997 4 WP MM HANNAH 1997-01-15 09:00:00 NR 5.04251 152.685 main 885 881 P_____________ WP011997 5.04251 152.685 15 -1 16 274
1997011N04176 1997 4 WP MM HANNAH 1997-01-15 12:00:00 NR 5.10000 151.900 main 881 875 O_____________ jtwc_wp WP011997 5.10000 151.900 15 -1 15 274
1997011N04176 1997 4 WP MM HANNAH 1997-01-15 15:00:00 NR 5.14236 151.227 main 874 874 P_____________ WP011997 5.14236 151.227 15 -1 13 274
1997011N04176 1997 4 WP MM HANNAH 1997-01-15 18:00:00 NR 5.20000 150.600 main 885 875 O_____________ jtwc_wp WP011997 5.20000 150.600 15 -1 13 277
1997011N04176 1997 4 WP MM HANNAH 1997-01-15 21:00:00 NR 5.29250 149.928 main 874 864 P_____________ WP011997 5.29250 149.928 15 -1 13 279
1997011N04176 1997 4 WP MM HANNAH 1997-01-16 00:00:00 NR 5.40000 149.300 main 866 861 O_____________ jtwc_wp WP011997 5.40000 149.300 15 -1 12 280
1997011N04176 1997 4 WP MM HANNAH 1997-01-16 03:00:00 NR 5.49991 148.770 main 865 860 P_____________ WP011997 5.49991 148.770 15 -1 10 281
1997011N04176 1997 4 WP MM HANNAH 1997-01-16 06:00:00 NR 5.60000 148.300 main 868 866 O_____________ jtwc_wp WP011997 5.60000 148.300 15 -1 9 282
1997011N04176 1997 4 WP MM HANNAH 1997-01-16 09:00:00 NR 5.69993 147.850 main 875 874 P_____________ WP011997 5.69993 147.850 15 -1 9 283
1997011N04176 1997 4 WP MM HANNAH 1997-01-16 12:00:00 NR 5.80000 147.400 main 885 885 O_____________ jtwc_wp WP011997 5.80000 147.400 15 -1 10 282
1997011N04176 1997 4 WP MM HANNAH 1997-01-16 15:00:00 NR 5.89998 146.907 main 896 896 P_____________ WP011997 5.89998 146.907 15 -1 10 281
1997011N04176 1997 4 WP MM HANNAH 1997-01-16 18:00:00 NR 6.00000 146.400 main 907 907 O_____________ jtwc_wp WP011997 6.00000 146.400 15 -1 10 281
1997011N04176 1997 4 WP MM HANNAH 1997-01-16 21:00:00 NR 6.09997 145.892 main 922 922 P_____________ WP011997 6.09997 145.892 15 -1 10 281
1997011N04176 1997 4 WP MM HANNAH 1997-01-17 00:00:00 NR 6.20000 145.400 main 939 939 O_____________ jtwc_wp WP011997 6.20000 145.400 15 -1 10 282
1997011N04176 1997 4 WP MM HANNAH 1997-01-17 03:00:00 NR 6.30744 144.943 main 960 960 P_____________ WP011997 6.30744 144.943 17 -1 9 283
1997011N04176 1997 4 WP MM HANNAH 1997-01-17 06:00:00 NR 6.40000 144.500 main 980 980 O_____________ jtwc_wp WP011997 6.40000 144.500 20 -1 9 280
1997011N04176 1997 4 WP MM HANNAH 1997-01-17 09:00:00 NR 6.46489 144.072 main 1002 1002 P_____________ WP011997 6.46489 144.072 20 -1 9 276
1997011N04176 1997 4 WP MM HANNAH 1997-01-17 12:00:00 NR 6.50000 143.600 main 1019 1019 O_____________ jtwc_wp WP011997 6.50000 143.600 20 -1 11 272
1997011N04176 1997 4 WP MM HANNAH 1997-01-17 15:00:00 NR 6.50015 142.970 main 1037 1016 P_____________ WP011997 6.50015 142.970 20 -1 12 270
1997011N04176 1997 4 WP MM HANNAH 1997-01-17 18:00:00 NR 6.50000 142.400 main 1016 1003 O_____________ jtwc_wp WP011997 6.50000 142.400 20 -1 9 273
1997011N04176 1997 4 WP MM HANNAH 1997-01-17 21:00:00 NR 6.54986 142.105 main 1003 1003 P_____________ WP011997 6.54986 142.105 20 -1 5 281
1997011N04176 1997 4 WP MM HANNAH 1997-01-18 00:00:00 NR 6.60000 141.900 main 1006 993 O_____________ jtwc_wp WP011997 6.60000 141.900 20 -1 5 277
1997011N04176 1997 4 WP MM HANNAH 1997-01-18 03:00:00 NR 6.61501 141.600 main 993 981 P_____________ WP011997 6.61501 141.600 20 -1 6 270
1997011N04176 1997 4 WP MM HANNAH 1997-01-18 06:00:00 NR 6.60000 141.300 main 981 973 O_____________ jtwc_wp WP011997 6.60000 141.300 20 -1 5 265
1997011N04176 1997 4 WP MM HANNAH 1997-01-18 09:00:00 NR 6.56496 141.050 main 973 952 P_____________ WP011997 6.56496 141.050 20 -1 5 259
1997011N04176 1997 4 WP MM HANNAH 1997-01-18 12:00:00 NR 6.50000 140.800 main 952 932 O_____________ jtwc_wp WP011997 6.50000 140.800 20 -1 6 255
1997011N04176 1997 4 WP MM HANNAH 1997-01-18 15:00:00 NR 6.41501 140.500 main 932 912 P_____________ WP011997 6.41501 140.500 22 -1 6 251
1997011N04176 1997 4 WP MM HANNAH 1997-01-18 18:00:00 NR 6.30000 140.200 main 912 885 O_____________ jtwc_wp WP011997 6.30000 140.200 25 -1 6 242
1997011N04176 1997 4 WP MM HANNAH 1997-01-18 21:00:00 NR 6.11997 139.950 main 883 867 P_____________ WP011997 6.11997 139.950 27 -1 6 239
1997011N04176 1997 4 WP MM HANNAH 1997-01-19 00:00:00 NR 6.00000 139.700 main 867 855 O_____________ jtwc_wp WP011997 6.00000 139.700 30 -1 5 264
1997011N04176 1997 4 WP MM HANNAH 1997-01-19 03:00:00 NR 6.06250 139.408 main 865 855 P_____________ WP011997 6.06250 139.408 32 -1 6 289
1997011N04176 1997 4 WP MM HANNAH 1997-01-19 06:00:00 NR 6.20000 139.100 main 861 856 O_____________ jtwc_wp WP011997 6.20000 139.100 35 0 7 291
1997011N04176 1997 4 WP MM HANNAH 1997-01-19 09:00:00 NR 6.29250 138.792 main 858 850 P_____________ WP011997 6.29250 138.792 37 0 6 286
1997011N04176 1997 4 WP MM HANNAH 1997-01-19 12:00:00 NR 6.36000 138.540 main 857 853 O__O__________ jtwc_wp WP011997 6.40000 138.500 40 0 6.20000 138.700 TD 25 1004 5 291
1997011N04176 1997 4 WP MM HANNAH 1997-01-19 15:00:00 NR 6.47916 138.299 main 860 856 P__P__________ WP011997 6.54246 138.250 42 0 6.35254 138.398 TD 27 1003 6 297
1997011N04176 1997 4 WP MM HANNAH 1997-01-19 18:00:00 NR 6.61429 138.043 main 860 860 O__O__________ jtwc_wp WP011997 6.70000 138.000 45 0 6.50000 138.100 TD 30 1002 6 297
1997011N04176 1997 4 WP MM HANNAH 1997-01-19 21:00:00 NR 6.75374 137.754 main 875 869 P__P__________ WP011997 6.86501 137.700 47 0 6.64247 137.807 TD 30 1002 7 296
1997011N04176 1997 4 WP MM HANNAH 1997-01-20 00:00:00 NR 6.90000 137.450 main 877 874 O__O__________ jtwc_wp WP011997 7.00000 137.400 50 0 6.80000 137.500 TD 30 1002 7 294
1997011N04176 1997 4 WP MM HANNAH 1997-01-20 03:00:00 NR 7.02497 137.154 main 880 878 P__P__________ WP011997 7.05747 137.142 47 0 6.99247 137.165 TD 30 1002 6 293
1997011N04176 1997 4 WP MM HANNAH 1997-01-20 06:00:00 NR 7.15000 136.850 main 896 885 O__O__________ jtwc_wp WP011997 7.10000 136.900 45 0 7.20000 136.800 TD 30 1002 7 293
1997011N04176 1997 4 WP MM HANNAH 1997-01-20 09:00:00 NR 7.28496 136.540 main 902 902 P__P__________ WP011997 7.17746 136.665 45 0 7.39246 136.415 TD 30 1002 7 304
1997011N04176 1997 4 WP MM HANNAH 1997-01-20 12:00:00 TS 7.56667 136.233 main 932 931 O_OO__________ jtwc_wp WP011997 7.30000 136.400 45 0 8.50000 136.500 1 29 1004 7.60000 136.000 TD 30 1002 8 310
1997011N04176 1997 4 WP MM HANNAH 1997-01-20 15:00:00 TS 7.81025 135.901 main 953 953 P_PP__________ WP011997 7.46994 136.087 45 0 8.47146 136.202 1 29 1004 7.81995 135.565 TD 30 1002 9 302
1997011N04176 1997 4 WP MM HANNAH 1997-01-20 18:00:00 TS 8.06364 135.427 main 971 895 O_OO__________ jtwc_wp WP011997 7.70000 135.700 45 0 8.50000 135.500 1 29 1004 8.10000 135.100 TD 30 1002 13 294
1997011N04176 1997 4 WP MM HANNAH 1997-01-20 21:00:00 TS 8.35139 134.668 main 896 821 P_PP__________ WP011997 7.95505 135.215 45 0 8.62157 134.205 1 29 1004 8.47755 134.585 TD 30 1002 16 292
1997011N04176 1997 4 WP MM HANNAH 1997-01-21 00:00:00 TS 8.66667 133.933 main 811 773 O_OO__________ jtwc_wp WP011997 8.30000 134.700 45 0 8.80000 133.000 1 29 1004 8.90000 134.100 TD 30 1002 13 300
1997011N04176 1997 4 WP MM HANNAH 1997-01-21 03:00:00 TS 9.01810 133.505 main 773 756 P_PP__________ WP011997 8.77755 134.198 45 0 8.97677 132.627 1 29 1004 9.29997 133.690 TD 30 1002 10 318
1997011N04176 1997 4 WP MM HANNAH 1997-01-21 06:00:00 TS 9.40000 133.267 main 761 749 O_OO__________ jtwc_wp WP011997 9.30000 133.800 45 0 9.20000 132.600 1 29 1004 9.70000 133.400 TD 30 1002 9 333
1997011N04176 1997 4 WP MM HANNAH 1997-01-21 09:00:00 TS 9.79577 133.105 main 752 749 P_PP__________ WP011997 9.77990 133.590 45 0 9.47748 132.485 1 29 1002 10.1299 133.240 TD 30 1002 8 343
1997011N04176 1997 4 WP MM HANNAH 1997-01-21 12:00:00 TS 10.1667 133.033 main 751 751 O_OO__________ jtwc_wp WP011997 10.2000 133.500 45 0 9.80000 132.400 1 29 1000 10.5000 133.200 TD 30 1002 7 350
1997011N04176 1997 4 WP MM HANNAH 1997-01-21 15:00:00 TS 10.4750 132.987 main 759 759 P_PP__________ WP011997 10.5525 133.457 45 0 10.1350 132.278 1 29 1000 10.7375 133.227 TD 30 1002 6 353
1997011N04176 1997 4 WP MM HANNAH 1997-01-21 18:00:00 TS 10.7333 132.967 main 764 755 O_OO__________ jtwc_wp WP011997 10.8000 133.400 45 0 10.5000 132.200 1 29 1000 10.9000 133.300 TD 30 1002 5 352
1997011N04176 1997 4 WP MM HANNAH 1997-01-21 21:00:00 TS 11.0000 132.911 main 761 761 P_PP__________ WP011997 10.9825 133.208 42 0 10.9524 132.182 1 29 1000 11.0650 133.343 TD 30 1002 4 351
1997011N04176 1997 4 WP MM HANNAH 1997-01-22 00:00:00 TS 11.1667 132.900 main 767 767 O_OO__________ jtwc_wp WP011997 11.0000 133.000 40 0 11.3000 132.300 1 29 1000 11.2000 133.400 TD 30 1002 2 29
1997011N04176 1997 4 WP MM HANNAH 1997-01-22 03:00:00 TS 11.1592 132.999 main 777 774 P_PP__________ WP011997 10.8025 132.862 37 0 11.3677 132.643 1 29 1001 11.3075 133.493 TD 30 1002 3 128
1997011N04176 1997 4 WP MM HANNAH 1997-01-22 06:00:00 TS 11.0100 133.100 main 782 777 O_OO__________ jtwc_wp WP011997 10.5000 132.800 35 0 11.3000 133.000 1 29 1002 11.4000 133.600 TD 30 1002 4 159
1997011N04176 1997 4 WP MM HANNAH 1997-01-22 09:00:00 TS 10.8018 133.131 main 777 769 P_PP__________ WP011997 10.2350 132.828 32 -1 11.2399 133.165 1 29 1002 11.4975 133.702 TD 27 1003 5 177
1997011N04176 1997 4 WP MM HANNAH 1997-01-22 12:00:00 TS 10.4667 133.100 main 769 745 O_OO__________ jtwc_wp WP011997 10.0000 132.900 30 -1 11.2000 133.200 1 29 1002 11.6000 133.800 TD 25 1004 10 190
1997011N04176 1997 4 WP MM HANNAH 1997-01-22 15:00:00 NR 9.84250 132.950 main 731 731 P_____________ WP011997 9.84250 132.950 30 -1 1 TD 8 187
1997011N04176 1997 4 WP MM HANNAH 1997-01-22 18:00:00 NR 9.70000 133.000 main 738 735 O_____________ jtwc_wp WP011997 9.70000 133.000 30 -1 4 160
1997011N04176 1997 4 WP MM HANNAH 1997-01-22 21:00:00 NR 9.50750 133.073 main 743 737 P_____________ WP011997 9.50750 133.073 30 -1 4 167
1997011N04176 1997 4 WP MM HANNAH 1997-01-23 00:00:00 NR 9.30000 133.100 main 737 721 O_____________ jtwc_wp WP011997 9.30000 133.100 30 -1 4 185
1997011N04176 1997 4 WP MM HANNAH 1997-01-23 03:00:00 NR 9.09249 133.037 main 721 706 P_____________ WP011997 9.09249 133.037 27 -1 4 206
1997011N04176 1997 4 WP MM HANNAH 1997-01-23 06:00:00 NR 8.90000 132.900 main 706 681 O_____________ jtwc_wp WP011997 8.90000 132.900 25 -1 5 219
1997011N04176 1997 4 WP MM HANNAH 1997-01-23 09:00:00 NR 8.71250 132.722 main 681 657 P_____________ WP011997 8.71250 132.722 25 -1 5 233
1997011N04176 1997 4 WP MM HANNAH 1997-01-23 12:00:00 NR 8.60000 132.500 main 657 625 O_____________ jtwc_wp WP011997 8.60000 132.500 25 -1 5 257
1997011N04176 1997 4 WP MM HANNAH 1997-01-23 15:00:00 NR 8.60503 132.235 main 625 605 P_____________ WP011997 8.60503 132.235 25 -1 5 281
1997011N04176 1997 4 WP MM HANNAH 1997-01-23 18:00:00 NR 8.70000 132.000 main 605 594 O_____________ jtwc_wp WP011997 8.70000 132.000 25 -1 4 303
1997011N04176 1997 4 WP MM HANNAH 1997-01-23 21:00:00 NR 8.83497 131.877 main 596 588 P_____________ WP011997 8.83497 131.877 25 -1 4 327
1997011N04176 1997 4 WP MM HANNAH 1997-01-24 00:00:00 NR 9.00000 131.800 main 590 582 O_____________ jtwc_wp WP011997 9.00000 131.800 25 -1 4 332
1997011N04176 1997 4 WP MM HANNAH 1997-01-24 03:00:00 NR 9.14999 131.707 main 582 575 P_____________ WP011997 9.14999 131.707 25 -1 4 327
1997011N04176 1997 4 WP MM HANNAH 1997-01-24 06:00:00 NR 9.30000 131.600 main 578 571 O_____________ jtwc_wp WP011997 9.30000 131.600 25 -1 4 320
1997011N04176 1997 4 WP MM HANNAH 1997-01-24 09:00:00 NR 9.45001 131.450 main 575 556 P_____________ WP011997 9.45001 131.450 25 -1 4 316
1997011N04176 1997 4 WP MM HANNAH 1997-01-24 12:00:00 NR 9.60000 131.300 main 556 545 O_____________ jtwc_wp WP011997 9.60000 131.300 25 -1 4 316
1997011N04176 1997 4 WP MM HANNAH 1997-01-24 15:00:00 NR 9.72750 131.178 main 547 538 P_____________ WP011997 9.72750 131.178 25 -1 4 327
1997011N04176 1997 4 WP MM HANNAH 1997-01-24 18:00:00 NR 9.90000 131.100 main 541 541 O_____________ jtwc_wp WP011997 9.90000 131.100 25 -1 5 348
1997011N04176 1997 4 WP MM HANNAH 1997-01-24 21:00:00 NR 10.1775 131.078 main 549 549 P_____________ WP011997 10.1775 131.078 25 -1 6 1
1997011N04176 1997 4 WP MM HANNAH 1997-01-25 00:00:00 NR 10.5000 131.100 main 556 556 O_____________ jtwc_wp WP011997 10.5000 131.100 25 -1 7 8
1997011N04176 1997 4 WP MM HANNAH 1997-01-25 03:00:00 NR 10.8300 131.172 main 576 576 P_____________ WP011997 10.8300 131.172 25 -1 6 9
1997011N04176 1997 4 WP MM HANNAH 1997-01-25 06:00:00 NR 11.1000 131.200 main 587 579 O_____________ jtwc_wp WP011997 11.1000 131.200 25 -1 4 349
1997011N04176 1997 4 WP MM HANNAH 1997-01-25 09:00:00 NR 11.2525 131.088 main 579 557 P_____________ WP011997 11.2525 131.088 25 -1 4 304
1997011N04176 1997 4 WP MM HANNAH 1997-01-25 12:00:00 NR 11.3000 130.900 main 557 536 O_____________ jtwc_wp WP011997 11.3000 130.900 25 -1 4 275
1997011N04176 1997 4 WP MM HANNAH 1997-01-25 15:00:00 NR 11.2875 130.715 main 536 513 P_____________ WP011997 11.2875 130.715 25 -1 4 256
1997011N04176 1997 4 WP MM HANNAH 1997-01-25 18:00:00 NR 11.2000 130.500 main 513 491 O_____________ jtwc_wp WP011997 11.2000 130.500 25 -1 5 246
1997011N04176 1997 4 WP MM HANNAH 1997-01-25 21:00:00 NR 11.0875 130.258 main 491 457 P_____________ WP011997 11.0875 130.258 25 -1 6 239
1997011N04176 1997 4 WP MM HANNAH 1997-01-26 00:00:00 NR 10.9000 130.000 main 457 424 O_____________ jtwc_wp WP011997 10.9000 130.000 25 -1 7 226
1997011N04176 1997 4 WP MM HANNAH 1997-01-26 03:00:00 NR 10.6150 129.757 main 424 382 P_____________ WP011997 10.6150 129.757 25 -1 8 219
1997011N04176 1997 4 WP MM HANNAH 1997-01-26 06:00:00 NR 10.3000 129.500 main 382 341 O_____________ jtwc_wp WP011997 10.3000 129.500 25 -1 8 222
1997011N04176 1997 4 WP MM HANNAH 1997-01-26 09:00:00 NR 10.0275 129.215 main 341 303 P_____________ WP011997 10.0275 129.215 25 -1 8 230
1997011N04176 1997 4 WP MM HANNAH 1997-01-26 12:00:00 NR 9.80000 128.900 main 303 269 O_____________ jtwc_wp WP011997 9.80000 128.900 25 -1 8 240
1997011N04176 1997 4 WP MM HANNAH 1997-01-26 15:00:00 NR 9.64253 128.543 main 256 222 P_____________ WP011997 9.64253 128.543 25 -1 8 246
1997011N04176 1997 4 WP MM HANNAH 1997-01-26 18:00:00 NR 9.50000 128.200 main 222 184 O_____________ jtwc_wp WP011997 9.50000 128.200 25 -1 7 241
1997011N04176 1997 4 WP MM HANNAH 1997-01-26 21:00:00 NR 9.29999 127.905 main 184 157 P_____________ WP011997 9.29999 127.905 25 -1 6 231
1997011N04176 1997 4 WP MM HANNAH 1997-01-27 00:00:00 NR 9.10000 127.700 main 157 144 O_____________ jtwc_wp WP011997 9.10000 127.700 25 -1 5 219
1997011N04176 1997 4 WP MM HANNAH 1997-01-27 03:00:00 NR 8.94997 127.613 main 143 142 P_____________ WP011997 8.94997 127.613 25 -1 3 197
1997011N04176 1997 4 WP MM HANNAH 1997-01-27 06:00:00 NR 8.80000 127.600 main 142 136 O_____________ jtwc_wp WP011997 8.80000 127.600 25 -1 3 183
1997011N04176 1997 4 WP MM HANNAH 1997-01-27 09:00:00 NR 8.61251 127.600 main 136 132 P_____________ WP011997 8.61251 127.600 25 -1 4 0
1997011N04176 1997 4 WP MM HANNAH 1997-01-27 12:00:00 NR 8.40000 127.600 main 132 O_____________ jtwc_wp WP011997 8.40000 127.600 25 -1 4 176

Digital Typhoon Data and Search

About IBTrACS Database

This database is a web-friendly format of International Best Track Archive for Climate Stewardship (IBTrACS), a global best track data archive curated by NOAA dating back to 1842.

Updated: 2021-10-21